sensor_id;sensor_type;location;lat;lon;timestamp;temperature;humidity
1385;DHT22;686;51.080;13.716;2022-08-21T00:02:22;19.50;99.90
1385;DHT22;686;51.080;13.716;2022-08-21T00:04:48;19.50;99.90
1385;DHT22;686;51.080;13.716;2022-08-21T00:07:16;19.60;99.90
1385;DHT22;686;51.080;13.716;2022-08-21T00:09:43;19.50;99.90
1385;DHT22;686;51.080;13.716;2022-08-21T00:12:08;19.50;99.90
1385;DHT22;686;51.080;13.716;2022-08-21T00:14:35;19.50;99.90
1385;DHT22;686;51.080;13.716;2022-08-21T00:17:01;19.50;99.90
1385;DHT22;686;51.080;13.716;2022-08-21T00:19:28;19.50;99.90
1385;DHT22;686;51.080;13.716;2022-08-21T00:21:54;19.50;99.90
1385;DHT22;686;51.080;13.716;2022-08-21T00:24:22;19.50;99.90
1385;DHT22;686;51.080;13.716;2022-08-21T00:26:48;19.50;99.90
1385;DHT22;686;51.080;13.716;2022-08-21T00:29:17;19.50;99.90
1385;DHT22;686;51.080;13.716;2022-08-21T00:31:46;19.50;99.90
1385;DHT22;686;51.080;13.716;2022-08-21T00:34:12;19.50;99.90
1385;DHT22;686;51.080;13.716;2022-08-21T00:36:38;19.50;99.90
1385;DHT22;686;51.080;13.716;2022-08-21T00:39:06;19.50;99.90
1385;DHT22;686;51.080;13.716;2022-08-21T00:41:33;19.50;99.90
1385;DHT22;686;51.080;13.716;2022-08-21T00:43:59;19.50;99.90
1385;DHT22;686;51.080;13.716;2022-08-21T00:46:25;19.60;99.90
1385;DHT22;686;51.080;13.716;2022-08-21T00:48:51;19.60;99.90
1385;DHT22;686;51.080;13.716;2022-08-21T00:51:24;19.60;99.90
1385;DHT22;686;51.080;13.716;2022-08-21T00:53:56;19.50;99.90
1385;DHT22;686;51.080;13.716;2022-08-21T00:56:24;19.60;99.90
1385;DHT22;686;51.080;13.716;2022-08-21T00:58:51;19.60;99.90
1385;DHT22;686;51.080;13.716;2022-08-21T01:01:18;19.60;99.90
1385;DHT22;686;51.080;13.716;2022-08-21T01:03:44;19.60;99.90
1385;DHT22;686;51.080;13.716;2022-08-21T01:06:10;19.60;99.90
1385;DHT22;686;51.080;13.716;2022-08-21T01:08:36;19.50;99.90
1385;DHT22;686;51.080;13.716;2022-08-21T01:11:03;19.50;99.90
1385;DHT22;686;51.080;13.716;2022-08-21T01:13:32;19.20;99.90
1385;DHT22;686;51.080;13.716;2022-08-21T01:16:00;18.80;99.90
1385;DHT22;686;51.080;13.716;2022-08-21T01:18:28;18.70;99.90
1385;DHT22;686;51.080;13.716;2022-08-21T01:21:09;18.60;99.90
1385;DHT22;686;51.080;13.716;2022-08-21T01:23:37;18.50;99.90
1385;DHT22;686;51.080;13.716;2022-08-21T01:26:04;18.40;99.90
1385;DHT22;686;51.080;13.716;2022-08-21T01:28:34;18.40;99.90
1385;DHT22;686;51.080;13.716;2022-08-21T01:31:03;18.30;99.90
1385;DHT22;686;51.080;13.716;2022-08-21T01:33:30;18.30;99.90
1385;DHT22;686;51.080;13.716;2022-08-21T01:35:56;18.30;99.90
1385;DHT22;686;51.080;13.716;2022-08-21T01:38:22;18.30;99.90
1385;DHT22;686;51.080;13.716;2022-08-21T01:40:48;18.20;99.90
1385;DHT22;686;51.080;13.716;2022-08-21T01:43:14;18.30;99.90
1385;DHT22;686;51.080;13.716;2022-08-21T01:45:40;18.30;99.90
1385;DHT22;686;51.080;13.716;2022-08-21T01:48:06;18.20;99.90
1385;DHT22;686;51.080;13.716;2022-08-21T01:50:32;18.20;99.90
1385;DHT22;686;51.080;13.716;2022-08-21T01:52:58;18.20;99.90
1385;DHT22;686;51.080;13.716;2022-08-21T01:55:23;18.20;99.90
1385;DHT22;686;51.080;13.716;2022-08-21T01:57:50;18.20;99.90
1385;DHT22;686;51.080;13.716;2022-08-21T02:00:19;18.20;99.90
1385;DHT22;686;51.080;13.716;2022-08-21T02:02:45;18.20;99.90
1385;DHT22;686;51.080;13.716;2022-08-21T02:05:12;18.10;99.90
1385;DHT22;686;51.080;13.716;2022-08-21T02:07:41;18.20;99.90
1385;DHT22;686;51.080;13.716;2022-08-21T02:10:08;18.20;99.90
1385;DHT22;686;51.080;13.716;2022-08-21T02:12:34;18.20;99.90
1385;DHT22;686;51.080;13.716;2022-08-21T02:15:02;18.20;99.90
1385;DHT22;686;51.080;13.716;2022-08-21T02:17:37;18.20;99.90
1385;DHT22;686;51.080;13.716;2022-08-21T02:20:03;18.20;99.90
1385;DHT22;686;51.080;13.716;2022-08-21T02:22:29;18.20;99.90
1385;DHT22;686;51.080;13.716;2022-08-21T02:24:55;18.20;99.90
1385;DHT22;686;51.080;13.716;2022-08-21T02:27:25;18.30;99.90
1385;DHT22;686;51.080;13.716;2022-08-21T02:29:51;18.30;99.90
1385;DHT22;686;51.080;13.716;2022-08-21T02:32:16;18.30;99.90
1385;DHT22;686;51.080;13.716;2022-08-21T02:34:42;18.30;99.90
1385;DHT22;686;51.080;13.716;2022-08-21T02:37:08;18.30;99.90
1385;DHT22;686;51.080;13.716;2022-08-21T02:39:34;18.30;99.90
1385;DHT22;686;51.080;13.716;2022-08-21T02:41:59;18.30;99.90
1385;DHT22;686;51.080;13.716;2022-08-21T02:44:25;18.40;99.90
1385;DHT22;686;51.080;13.716;2022-08-21T02:46:51;18.40;99.90
1385;DHT22;686;51.080;13.716;2022-08-21T02:49:19;18.40;99.90
1385;DHT22;686;51.080;13.716;2022-08-21T02:51:44;18.30;99.90
1385;DHT22;686;51.080;13.716;2022-08-21T02:54:10;18.30;99.90
1385;DHT22;686;51.080;13.716;2022-08-21T02:56:36;18.30;99.90
1385;DHT22;686;51.080;13.716;2022-08-21T02:59:02;18.30;99.90
1385;DHT22;686;51.080;13.716;2022-08-21T03:01:27;18.30;99.90
1385;DHT22;686;51.080;13.716;2022-08-21T03:03:53;18.40;99.90
1385;DHT22;686;51.080;13.716;2022-08-21T03:06:21;18.50;99.90
1385;DHT22;686;51.080;13.716;2022-08-21T03:08:47;18.50;99.90
1385;DHT22;686;51.080;13.716;2022-08-21T03:11:14;18.50;99.90
1385;DHT22;686;51.080;13.716;2022-08-21T03:13:40;18.50;99.90
1385;DHT22;686;51.080;13.716;2022-08-21T03:16:07;18.40;99.90
1385;DHT22;686;51.080;13.716;2022-08-21T03:18:33;18.50;99.90
1385;DHT22;686;51.080;13.716;2022-08-21T03:20:59;18.40;99.90
1385;DHT22;686;51.080;13.716;2022-08-21T03:23:25;18.50;99.90
1385;DHT22;686;51.080;13.716;2022-08-21T03:25:51;18.50;99.90
1385;DHT22;686;51.080;13.716;2022-08-21T03:28:19;18.50;99.90
1385;DHT22;686;51.080;13.716;2022-08-21T03:30:47;18.50;99.90
1385;DHT22;686;51.080;13.716;2022-08-21T03:33:14;18.60;99.90
1385;DHT22;686;51.080;13.716;2022-08-21T03:35:40;18.50;99.90
1385;DHT22;686;51.080;13.716;2022-08-21T03:38:07;18.50;99.90
1385;DHT22;686;51.080;13.716;2022-08-21T03:40:33;18.40;99.90
1385;DHT22;686;51.080;13.716;2022-08-21T03:42:58;18.30;99.90
1385;DHT22;686;51.080;13.716;2022-08-21T03:45:24;18.20;99.90
1385;DHT22;686;51.080;13.716;2022-08-21T03:48:02;18.20;99.90
1385;DHT22;686;51.080;13.716;2022-08-21T03:50:31;18.10;99.90
1385;DHT22;686;51.080;13.716;2022-08-21T03:52:57;18.10;99.90
1385;DHT22;686;51.080;13.716;2022-08-21T03:55:23;18.20;99.90
1385;DHT22;686;51.080;13.716;2022-08-21T03:57:49;18.20;99.90
1385;DHT22;686;51.080;13.716;2022-08-21T04:00:16;18.10;99.90
1385;DHT22;686;51.080;13.716;2022-08-21T04:02:42;18.10;99.90
1385;DHT22;686;51.080;13.716;2022-08-21T04:05:10;18.00;99.90
1385;DHT22;686;51.080;13.716;2022-08-21T04:07:36;18.10;99.90
1385;DHT22;686;51.080;13.716;2022-08-21T04:10:04;18.10;99.90
1385;DHT22;686;51.080;13.716;2022-08-21T04:12:30;18.10;99.90
1385;DHT22;686;51.080;13.716;2022-08-21T04:14:56;18.10;99.90
1385;DHT22;686;51.080;13.716;2022-08-21T04:17:22;18.20;99.90
1385;DHT22;686;51.080;13.716;2022-08-21T04:19:48;18.20;99.90
1385;DHT22;686;51.080;13.716;2022-08-21T04:22:15;18.30;99.90
1385;DHT22;686;51.080;13.716;2022-08-21T04:24:41;18.10;99.90
1385;DHT22;686;51.080;13.716;2022-08-21T04:27:07;18.10;99.90
1385;DHT22;686;51.080;13.716;2022-08-21T04:29:32;18.10;99.90
1385;DHT22;686;51.080;13.716;2022-08-21T04:31:58;18.20;99.90
1385;DHT22;686;51.080;13.716;2022-08-21T04:34:24;18.20;99.90
1385;DHT22;686;51.080;13.716;2022-08-21T04:36:50;18.30;99.90
1385;DHT22;686;51.080;13.716;2022-08-21T04:39:16;18.30;99.90
1385;DHT22;686;51.080;13.716;2022-08-21T04:41:42;18.20;99.90
1385;DHT22;686;51.080;13.716;2022-08-21T04:44:07;18.20;99.90
1385;DHT22;686;51.080;13.716;2022-08-21T04:46:34;18.20;99.90
1385;DHT22;686;51.080;13.716;2022-08-21T04:49:00;18.30;99.90
1385;DHT22;686;51.080;13.716;2022-08-21T04:51:30;18.30;99.90
1385;DHT22;686;51.080;13.716;2022-08-21T04:57:00;18.30;99.90
1385;DHT22;686;51.080;13.716;2022-08-21T04:59:37;18.30;99.90
1385;DHT22;686;51.080;13.716;2022-08-21T05:02:04;18.40;99.90
1385;DHT22;686;51.080;13.716;2022-08-21T05:04:32;18.30;99.90
1385;DHT22;686;51.080;13.716;2022-08-21T05:07:01;18.40;99.90
1385;DHT22;686;51.080;13.716;2022-08-21T05:09:27;18.40;99.90
1385;DHT22;686;51.080;13.716;2022-08-21T05:11:54;18.40;99.90
1385;DHT22;686;51.080;13.716;2022-08-21T05:14:20;18.40;99.90
1385;DHT22;686;51.080;13.716;2022-08-21T05:16:46;18.30;99.90
1385;DHT22;686;51.080;13.716;2022-08-21T05:19:13;18.30;99.90
1385;DHT22;686;51.080;13.716;2022-08-21T05:21:41;18.40;99.90
1385;DHT22;686;51.080;13.716;2022-08-21T05:24:08;18.50;99.90
1385;DHT22;686;51.080;13.716;2022-08-21T05:26:34;18.50;99.90
1385;DHT22;686;51.080;13.716;2022-08-21T05:29:03;18.60;99.90
1385;DHT22;686;51.080;13.716;2022-08-21T05:31:28;18.50;99.90
1385;DHT22;686;51.080;13.716;2022-08-21T05:33:54;18.60;99.90
1385;DHT22;686;51.080;13.716;2022-08-21T05:36:20;18.60;99.90
1385;DHT22;686;51.080;13.716;2022-08-21T05:38:46;18.70;99.90
1385;DHT22;686;51.080;13.716;2022-08-21T05:41:12;18.80;99.90
1385;DHT22;686;51.080;13.716;2022-08-21T05:43:38;18.80;99.90
1385;DHT22;686;51.080;13.716;2022-08-21T05:46:04;18.80;99.90
1385;DHT22;686;51.080;13.716;2022-08-21T05:48:31;18.80;99.90
1385;DHT22;686;51.080;13.716;2022-08-21T05:50:57;18.70;99.90
1385;DHT22;686;51.080;13.716;2022-08-21T05:53:24;18.60;99.90
1385;DHT22;686;51.080;13.716;2022-08-21T05:55:51;18.70;99.90
1385;DHT22;686;51.080;13.716;2022-08-21T05:58:21;18.90;99.90
1385;DHT22;686;51.080;13.716;2022-08-21T06:00:49;18.90;99.90
1385;DHT22;686;51.080;13.716;2022-08-21T06:03:36;18.90;99.90
1385;DHT22;686;51.080;13.716;2022-08-21T06:06:02;18.90;99.90
1385;DHT22;686;51.080;13.716;2022-08-21T06:08:29;19.10;99.90
1385;DHT22;686;51.080;13.716;2022-08-21T06:10:56;19.10;99.90
1385;DHT22;686;51.080;13.716;2022-08-21T06:13:22;19.00;99.90
1385;DHT22;686;51.080;13.716;2022-08-21T06:15:50;19.00;99.90
1385;DHT22;686;51.080;13.716;2022-08-21T06:18:16;19.00;99.90
1385;DHT22;686;51.080;13.716;2022-08-21T06:20:42;19.00;99.90
1385;DHT22;686;51.080;13.716;2022-08-21T06:23:09;19.00;99.90
1385;DHT22;686;51.080;13.716;2022-08-21T06:25:35;19.00;99.90
1385;DHT22;686;51.080;13.716;2022-08-21T06:28:06;19.10;99.90
1385;DHT22;686;51.080;13.716;2022-08-21T06:30:33;19.10;99.90
1385;DHT22;686;51.080;13.716;2022-08-21T06:32:59;19.20;99.90
1385;DHT22;686;51.080;13.716;2022-08-21T06:35:25;19.20;99.90
1385;DHT22;686;51.080;13.716;2022-08-21T06:37:51;19.20;99.90
1385;DHT22;686;51.080;13.716;2022-08-21T06:40:17;19.30;99.90
1385;DHT22;686;51.080;13.716;2022-08-21T06:42:43;19.20;99.90
1385;DHT22;686;51.080;13.716;2022-08-21T06:45:10;19.20;99.90
1385;DHT22;686;51.080;13.716;2022-08-21T06:47:36;19.30;99.90
1385;DHT22;686;51.080;13.716;2022-08-21T06:50:02;19.40;99.90
1385;DHT22;686;51.080;13.716;2022-08-21T06:52:30;19.40;99.90
1385;DHT22;686;51.080;13.716;2022-08-21T06:54:56;19.40;99.90
1385;DHT22;686;51.080;13.716;2022-08-21T06:57:22;19.50;99.90
1385;DHT22;686;51.080;13.716;2022-08-21T06:59:47;19.50;99.90
1385;DHT22;686;51.080;13.716;2022-08-21T07:02:13;19.60;99.90
1385;DHT22;686;51.080;13.716;2022-08-21T07:04:39;19.60;99.90
1385;DHT22;686;51.080;13.716;2022-08-21T07:07:04;19.80;99.90
1385;DHT22;686;51.080;13.716;2022-08-21T07:09:30;19.70;99.90
1385;DHT22;686;51.080;13.716;2022-08-21T07:11:56;19.80;99.90
1385;DHT22;686;51.080;13.716;2022-08-21T07:14:22;19.90;99.90
1385;DHT22;686;51.080;13.716;2022-08-21T07:16:49;19.90;99.90
1385;DHT22;686;51.080;13.716;2022-08-21T07:19:16;20.00;99.90
1385;DHT22;686;51.080;13.716;2022-08-21T07:21:42;20.10;99.90
1385;DHT22;686;51.080;13.716;2022-08-21T07:24:07;20.10;99.90
1385;DHT22;686;51.080;13.716;2022-08-21T07:26:34;20.20;99.90
1385;DHT22;686;51.080;13.716;2022-08-21T07:29:00;20.20;99.90
1385;DHT22;686;51.080;13.716;2022-08-21T07:31:27;20.20;99.90
1385;DHT22;686;51.080;13.716;2022-08-21T07:33:53;20.20;99.90
1385;DHT22;686;51.080;13.716;2022-08-21T07:36:19;20.10;99.90
1385;DHT22;686;51.080;13.716;2022-08-21T07:38:45;20.10;99.90
1385;DHT22;686;51.080;13.716;2022-08-21T07:41:23;20.00;99.90
1385;DHT22;686;51.080;13.716;2022-08-21T07:43:50;20.00;99.90
1385;DHT22;686;51.080;13.716;2022-08-21T07:46:16;20.00;99.90
1385;DHT22;686;51.080;13.716;2022-08-21T07:48:42;20.00;99.90
1385;DHT22;686;51.080;13.716;2022-08-21T07:51:12;20.00;99.90
1385;DHT22;686;51.080;13.716;2022-08-21T07:53:38;20.20;99.90
1385;DHT22;686;51.080;13.716;2022-08-21T07:56:05;20.20;99.90
1385;DHT22;686;51.080;13.716;2022-08-21T07:58:32;20.20;99.90
1385;DHT22;686;51.080;13.716;2022-08-21T08:00:58;20.30;99.90
1385;DHT22;686;51.080;13.716;2022-08-21T08:03:24;20.50;99.90
1385;DHT22;686;51.080;13.716;2022-08-21T08:05:50;20.40;99.90
1385;DHT22;686;51.080;13.716;2022-08-21T08:08:16;20.40;99.90
1385;DHT22;686;51.080;13.716;2022-08-21T08:10:43;20.50;99.90
1385;DHT22;686;51.080;13.716;2022-08-21T08:13:09;20.60;99.90
1385;DHT22;686;51.080;13.716;2022-08-21T08:15:36;20.60;99.90
1385;DHT22;686;51.080;13.716;2022-08-21T08:18:02;20.50;99.90
1385;DHT22;686;51.080;13.716;2022-08-21T08:20:28;20.40;99.90
1385;DHT22;686;51.080;13.716;2022-08-21T08:22:55;20.50;99.90
1385;DHT22;686;51.080;13.716;2022-08-21T08:25:21;20.60;99.90
1385;DHT22;686;51.080;13.716;2022-08-21T08:27:48;20.60;99.90
1385;DHT22;686;51.080;13.716;2022-08-21T08:30:16;20.60;99.90
1385;DHT22;686;51.080;13.716;2022-08-21T08:32:42;20.80;99.90
1385;DHT22;686;51.080;13.716;2022-08-21T08:35:09;20.90;99.90
1385;DHT22;686;51.080;13.716;2022-08-21T08:37:34;21.00;99.90
1385;DHT22;686;51.080;13.716;2022-08-21T08:40:04;21.10;99.90
1385;DHT22;686;51.080;13.716;2022-08-21T08:42:34;21.10;99.90
1385;DHT22;686;51.080;13.716;2022-08-21T08:45:06;21.00;99.90
1385;DHT22;686;51.080;13.716;2022-08-21T08:47:36;21.00;99.90
1385;DHT22;686;51.080;13.716;2022-08-21T08:50:22;21.10;99.90
1385;DHT22;686;51.080;13.716;2022-08-21T08:55:28;21.10;99.90
1385;DHT22;686;51.080;13.716;2022-08-21T08:57:57;21.20;99.90
1385;DHT22;686;51.080;13.716;2022-08-21T09:00:24;21.20;99.90
1385;DHT22;686;51.080;13.716;2022-08-21T09:02:55;21.30;99.90
1385;DHT22;686;51.080;13.716;2022-08-21T09:05:25;21.50;99.90
1385;DHT22;686;51.080;13.716;2022-08-21T09:08:46;21.40;99.90
1385;DHT22;686;51.080;13.716;2022-08-21T09:10:57;21.30;99.90
1385;DHT22;686;51.080;13.716;2022-08-21T09:13:43;21.60;99.90
1385;DHT22;686;51.080;13.716;2022-08-21T09:21:50;21.50;99.90
1385;DHT22;686;51.080;13.716;2022-08-21T09:29:24;21.60;99.90
1385;DHT22;686;51.080;13.716;2022-08-21T09:31:51;21.60;99.90
1385;DHT22;686;51.080;13.716;2022-08-21T09:34:26;21.60;99.90
1385;DHT22;686;51.080;13.716;2022-08-21T09:36:52;21.80;99.90
1385;DHT22;686;51.080;13.716;2022-08-21T09:39:39;21.90;99.90
1385;DHT22;686;51.080;13.716;2022-08-21T09:42:07;21.80;99.90
1385;DHT22;686;51.080;13.716;2022-08-21T09:44:39;22.10;99.90
1385;DHT22;686;51.080;13.716;2022-08-21T09:47:07;22.10;99.90
1385;DHT22;686;51.080;13.716;2022-08-21T09:49:39;22.00;99.90
1385;DHT22;686;51.080;13.716;2022-08-21T09:52:18;22.20;99.90
1385;DHT22;686;51.080;13.716;2022-08-21T09:54:46;22.20;99.90
1385;DHT22;686;51.080;13.716;2022-08-21T09:57:27;22.30;99.90
1385;DHT22;686;51.080;13.716;2022-08-21T10:02:37;22.10;99.90
1385;DHT22;686;51.080;13.716;2022-08-21T10:05:24;22.30;99.90
1385;DHT22;686;51.080;13.716;2022-08-21T10:07:50;22.50;99.90
1385;DHT22;686;51.080;13.716;2022-08-21T10:10:26;22.60;99.90
1385;DHT22;686;51.080;13.716;2022-08-21T10:15:47;22.40;99.90
1385;DHT22;686;51.080;13.716;2022-08-21T10:18:35;22.30;99.90
1385;DHT22;686;51.080;13.716;2022-08-21T10:21:21;22.20;99.90
1385;DHT22;686;51.080;13.716;2022-08-21T10:27:18;22.40;99.90
1385;DHT22;686;51.080;13.716;2022-08-21T10:43:21;22.90;99.90
1385;DHT22;686;51.080;13.716;2022-08-21T10:46:07;22.40;99.90
1385;DHT22;686;51.080;13.716;2022-08-21T10:48:52;22.40;99.90
1385;DHT22;686;51.080;13.716;2022-08-21T10:51:40;22.80;99.90
1385;DHT22;686;51.080;13.716;2022-08-21T10:56:51;22.90;99.90
1385;DHT22;686;51.080;13.716;2022-08-21T10:59:30;23.20;99.90
1385;DHT22;686;51.080;13.716;2022-08-21T11:02:32;23.20;99.90
1385;DHT22;686;51.080;13.716;2022-08-21T11:05:15;22.90;99.90
1385;DHT22;686;51.080;13.716;2022-08-21T11:07:55;23.00;99.90
1385;DHT22;686;51.080;13.716;2022-08-21T11:10:31;23.00;99.90
1385;DHT22;686;51.080;13.716;2022-08-21T11:13:06;23.20;99.90
1385;DHT22;686;51.080;13.716;2022-08-21T11:15:42;23.30;99.90
1385;DHT22;686;51.080;13.716;2022-08-21T11:18:30;23.20;99.90
1385;DHT22;686;51.080;13.716;2022-08-21T11:26:43;23.10;99.90
1385;DHT22;686;51.080;13.716;2022-08-21T11:29:25;23.10;99.90
1385;DHT22;686;51.080;13.716;2022-08-21T11:35:08;23.60;99.90
1385;DHT22;686;51.080;13.716;2022-08-21T11:43:24;24.10;99.90
1385;DHT22;686;51.080;13.716;2022-08-21T11:48:59;23.60;99.90
1385;DHT22;686;51.080;13.716;2022-08-21T11:54:42;24.10;99.90
1385;DHT22;686;51.080;13.716;2022-08-21T11:57:38;24.10;99.90
1385;DHT22;686;51.080;13.716;2022-08-21T12:00:16;24.00;99.90
1385;DHT22;686;51.080;13.716;2022-08-21T12:02:51;23.90;99.90
1385;DHT22;686;51.080;13.716;2022-08-21T12:05:36;24.00;99.90
1385;DHT22;686;51.080;13.716;2022-08-21T12:10:38;23.80;99.90
1385;DHT22;686;51.080;13.716;2022-08-21T12:13:29;24.20;99.90
1385;DHT22;686;51.080;13.716;2022-08-21T12:16:10;24.30;99.90
1385;DHT22;686;51.080;13.716;2022-08-21T12:18:36;24.30;99.90
1385;DHT22;686;51.080;13.716;2022-08-21T12:21:24;24.20;99.90
1385;DHT22;686;51.080;13.716;2022-08-21T12:27:41;24.10;99.90
1385;DHT22;686;51.080;13.716;2022-08-21T12:29:38;24.00;99.90
1385;DHT22;686;51.080;13.716;2022-08-21T12:34:38;24.40;99.90
1385;DHT22;686;51.080;13.716;2022-08-21T12:39:47;24.00;99.90
1385;DHT22;686;51.080;13.716;2022-08-21T12:42:22;23.80;99.90
1385;DHT22;686;51.080;13.716;2022-08-21T12:44:53;23.60;99.90
1385;DHT22;686;51.080;13.716;2022-08-21T12:50:17;24.10;99.90
1385;DHT22;686;51.080;13.716;2022-08-21T12:52:59;23.80;99.90
1385;DHT22;686;51.080;13.716;2022-08-21T12:55:28;23.90;99.90
1385;DHT22;686;51.080;13.716;2022-08-21T12:57:55;24.20;99.90
1385;DHT22;686;51.080;13.716;2022-08-21T13:00:24;24.30;99.90
1385;DHT22;686;51.080;13.716;2022-08-21T13:02:52;24.00;99.90
1385;DHT22;686;51.080;13.716;2022-08-21T13:07:53;23.90;99.90
1385;DHT22;686;51.080;13.716;2022-08-21T13:10:26;23.70;99.90
1385;DHT22;686;51.080;13.716;2022-08-21T13:13:22;23.70;99.90
1385;DHT22;686;51.080;13.716;2022-08-21T13:15:48;23.70;99.90
1385;DHT22;686;51.080;13.716;2022-08-21T13:18:24;23.90;99.90
1385;DHT22;686;51.080;13.716;2022-08-21T13:20:51;23.80;99.90
1385;DHT22;686;51.080;13.716;2022-08-21T13:23:28;24.00;99.90
1385;DHT22;686;51.080;13.716;2022-08-21T13:25:55;23.90;99.90
1385;DHT22;686;51.080;13.716;2022-08-21T13:28:22;24.10;99.90
1385;DHT22;686;51.080;13.716;2022-08-21T13:30:51;24.10;99.90
1385;DHT22;686;51.080;13.716;2022-08-21T13:33:20;23.90;99.90
1385;DHT22;686;51.080;13.716;2022-08-21T13:35:57;24.20;99.90
1385;DHT22;686;51.080;13.716;2022-08-21T13:38:37;24.50;99.90
1385;DHT22;686;51.080;13.716;2022-08-21T13:43:38;24.70;99.90
1385;DHT22;686;51.080;13.716;2022-08-21T13:46:12;24.50;99.90
1385;DHT22;686;51.080;13.716;2022-08-21T13:48:39;24.30;99.90
1385;DHT22;686;51.080;13.716;2022-08-21T13:51:05;24.50;99.90
1385;DHT22;686;51.080;13.716;2022-08-21T13:53:35;24.40;99.90
1385;DHT22;686;51.080;13.716;2022-08-21T13:56:02;24.40;99.90
1385;DHT22;686;51.080;13.716;2022-08-21T13:58:30;24.60;99.90
1385;DHT22;686;51.080;13.716;2022-08-21T14:00:59;24.90;99.90
1385;DHT22;686;51.080;13.716;2022-08-21T14:03:36;25.20;99.90
1385;DHT22;686;51.080;13.716;2022-08-21T14:06:33;25.10;99.90
1385;DHT22;686;51.080;13.716;2022-08-21T14:09:08;25.10;99.90
1385;DHT22;686;51.080;13.716;2022-08-21T14:11:35;24.90;99.90
1385;DHT22;686;51.080;13.716;2022-08-21T14:14:22;24.60;99.90
1385;DHT22;686;51.080;13.716;2022-08-21T14:16:58;24.50;99.90
1385;DHT22;686;51.080;13.716;2022-08-21T14:19:34;24.40;99.90
1385;DHT22;686;51.080;13.716;2022-08-21T14:22:00;24.40;99.90
1385;DHT22;686;51.080;13.716;2022-08-21T14:24:28;24.60;99.90
1385;DHT22;686;51.080;13.716;2022-08-21T14:27:03;24.80;99.90
1385;DHT22;686;51.080;13.716;2022-08-21T14:29:35;24.80;99.90
1385;DHT22;686;51.080;13.716;2022-08-21T14:32:15;24.70;99.90
1385;DHT22;686;51.080;13.716;2022-08-21T14:34:44;24.40;99.90
1385;DHT22;686;51.080;13.716;2022-08-21T14:37:10;24.40;99.90
1385;DHT22;686;51.080;13.716;2022-08-21T14:39:36;24.60;99.90
1385;DHT22;686;51.080;13.716;2022-08-21T14:42:02;24.50;99.90
1385;DHT22;686;51.080;13.716;2022-08-21T14:44:28;24.50;99.90
1385;DHT22;686;51.080;13.716;2022-08-21T14:46:54;24.50;99.90
1385;DHT22;686;51.080;13.716;2022-08-21T14:49:21;24.40;99.90
1385;DHT22;686;51.080;13.716;2022-08-21T14:51:46;24.40;99.90
1385;DHT22;686;51.080;13.716;2022-08-21T14:54:12;24.40;99.90
1385;DHT22;686;51.080;13.716;2022-08-21T14:56:38;24.50;99.90
1385;DHT22;686;51.080;13.716;2022-08-21T14:59:06;24.50;99.90
1385;DHT22;686;51.080;13.716;2022-08-21T15:01:35;24.20;99.90
1385;DHT22;686;51.080;13.716;2022-08-21T15:04:01;24.00;99.90
1385;DHT22;686;51.080;13.716;2022-08-21T15:06:27;24.00;99.90
1385;DHT22;686;51.080;13.716;2022-08-21T15:08:53;24.20;99.90
1385;DHT22;686;51.080;13.716;2022-08-21T15:11:21;24.10;99.90
1385;DHT22;686;51.080;13.716;2022-08-21T15:13:51;23.90;99.90
1385;DHT22;686;51.080;13.716;2022-08-21T15:16:18;24.00;99.90
1385;DHT22;686;51.080;13.716;2022-08-21T15:18:44;24.00;99.90
1385;DHT22;686;51.080;13.716;2022-08-21T15:21:10;23.90;99.90
1385;DHT22;686;51.080;13.716;2022-08-21T15:23:35;23.90;99.90
1385;DHT22;686;51.080;13.716;2022-08-21T15:26:02;23.80;99.90
1385;DHT22;686;51.080;13.716;2022-08-21T15:28:28;24.00;99.90
1385;DHT22;686;51.080;13.716;2022-08-21T15:30:54;23.70;99.90
1385;DHT22;686;51.080;13.716;2022-08-21T15:33:20;23.80;99.90
1385;DHT22;686;51.080;13.716;2022-08-21T15:35:46;24.00;99.90
1385;DHT22;686;51.080;13.716;2022-08-21T15:38:14;23.80;99.90
1385;DHT22;686;51.080;13.716;2022-08-21T15:40:40;24.00;99.90
1385;DHT22;686;51.080;13.716;2022-08-21T15:43:16;24.20;99.90
1385;DHT22;686;51.080;13.716;2022-08-21T15:45:44;24.50;99.90
1385;DHT22;686;51.080;13.716;2022-08-21T15:48:09;24.40;99.90
1385;DHT22;686;51.080;13.716;2022-08-21T15:50:35;24.80;99.90
1385;DHT22;686;51.080;13.716;2022-08-21T15:53:01;25.00;99.90
1385;DHT22;686;51.080;13.716;2022-08-21T15:55:27;24.60;99.90
1385;DHT22;686;51.080;13.716;2022-08-21T15:57:53;24.30;99.90
1385;DHT22;686;51.080;13.716;2022-08-21T16:00:22;24.10;99.90
1385;DHT22;686;51.080;13.716;2022-08-21T16:02:53;24.00;99.90
1385;DHT22;686;51.080;13.716;2022-08-21T16:05:20;23.90;99.90
1385;DHT22;686;51.080;13.716;2022-08-21T16:07:49;24.10;99.90
1385;DHT22;686;51.080;13.716;2022-08-21T16:10:18;24.00;99.90
1385;DHT22;686;51.080;13.716;2022-08-21T16:12:52;23.80;99.90
1385;DHT22;686;51.080;13.716;2022-08-21T16:15:19;23.80;99.90
1385;DHT22;686;51.080;13.716;2022-08-21T16:17:47;23.80;99.90
1385;DHT22;686;51.080;13.716;2022-08-21T16:20:16;23.60;99.90
1385;DHT22;686;51.080;13.716;2022-08-21T16:22:42;23.60;99.90
1385;DHT22;686;51.080;13.716;2022-08-21T16:25:08;23.50;99.90
1385;DHT22;686;51.080;13.716;2022-08-21T16:27:35;23.50;99.90
1385;DHT22;686;51.080;13.716;2022-08-21T16:30:05;23.40;99.90
1385;DHT22;686;51.080;13.716;2022-08-21T16:32:31;23.30;99.90
1385;DHT22;686;51.080;13.716;2022-08-21T16:34:57;23.20;99.90
1385;DHT22;686;51.080;13.716;2022-08-21T16:37:22;23.20;99.90
1385;DHT22;686;51.080;13.716;2022-08-21T16:39:48;23.20;99.90
1385;DHT22;686;51.080;13.716;2022-08-21T16:42:23;23.10;99.90
1385;DHT22;686;51.080;13.716;2022-08-21T16:44:50;23.20;99.90
1385;DHT22;686;51.080;13.716;2022-08-21T16:47:17;23.30;99.90
1385;DHT22;686;51.080;13.716;2022-08-21T16:49:43;23.40;99.90
1385;DHT22;686;51.080;13.716;2022-08-21T16:52:11;23.40;99.90
1385;DHT22;686;51.080;13.716;2022-08-21T16:54:37;23.50;99.90
1385;DHT22;686;51.080;13.716;2022-08-21T16:57:03;23.70;99.90
1385;DHT22;686;51.080;13.716;2022-08-21T16:59:29;23.80;99.90
1385;DHT22;686;51.080;13.716;2022-08-21T17:01:55;24.00;99.90
1385;DHT22;686;51.080;13.716;2022-08-21T17:04:21;24.00;99.90
1385;DHT22;686;51.080;13.716;2022-08-21T17:06:47;24.10;99.90
1385;DHT22;686;51.080;13.716;2022-08-21T17:09:13;24.10;99.90
1385;DHT22;686;51.080;13.716;2022-08-21T17:11:42;24.00;99.90
1385;DHT22;686;51.080;13.716;2022-08-21T17:14:20;24.20;99.90
1385;DHT22;686;51.080;13.716;2022-08-21T17:16:52;24.00;99.90
1385;DHT22;686;51.080;13.716;2022-08-21T17:19:19;23.80;99.90
1385;DHT22;686;51.080;13.716;2022-08-21T17:21:45;23.60;99.90
1385;DHT22;686;51.080;13.716;2022-08-21T17:24:11;23.50;99.90
1385;DHT22;686;51.080;13.716;2022-08-21T17:26:41;23.30;99.90
1385;DHT22;686;51.080;13.716;2022-08-21T17:29:07;23.10;99.90
1385;DHT22;686;51.080;13.716;2022-08-21T17:31:35;23.00;99.90
1385;DHT22;686;51.080;13.716;2022-08-21T17:34:02;22.90;99.90
1385;DHT22;686;51.080;13.716;2022-08-21T17:36:29;22.80;99.90